sensor_id;sensor_type;location;lat;lon;timestamp;P1;durP1;ratioP1;P2;durP2;ratioP2
18505;SDS011;9382;53.242;10.438;2023-04-10T00:01:59;54.57;;;28.17;;
18505;SDS011;9382;53.242;10.438;2023-04-10T00:04:26;53.23;;;28.13;;
18505;SDS011;9382;53.242;10.438;2023-04-10T00:06:53;51.47;;;28.27;;
18505;SDS011;9382;53.242;10.438;2023-04-10T00:09:19;50.73;;;28.57;;
18505;SDS011;9382;53.242;10.438;2023-04-10T00:11:46;52.27;;;28.00;;
18505;SDS011;9382;53.242;10.438;2023-04-10T00:14:14;52.33;;;28.10;;
18505;SDS011;9382;53.242;10.438;2023-04-10T00:16:47;52.70;;;28.00;;
18505;SDS011;9382;53.242;10.438;2023-04-10T00:19:13;54.30;;;28.23;;
18505;SDS011;9382;53.242;10.438;2023-04-10T00:21:40;50.43;;;27.40;;
18505;SDS011;9382;53.242;10.438;2023-04-10T00:24:07;47.20;;;27.30;;
18505;SDS011;9382;53.242;10.438;2023-04-10T00:26:36;49.93;;;26.57;;
18505;SDS011;9382;53.242;10.438;2023-04-10T00:29:02;52.23;;;27.23;;
18505;SDS011;9382;53.242;10.438;2023-04-10T00:31:31;50.67;;;26.80;;
18505;SDS011;9382;53.242;10.438;2023-04-10T00:33:58;48.27;;;26.30;;
18505;SDS011;9382;53.242;10.438;2023-04-10T00:36:25;49.83;;;27.30;;
18505;SDS011;9382;53.242;10.438;2023-04-10T00:38:52;49.80;;;26.83;;
18505;SDS011;9382;53.242;10.438;2023-04-10T00:41:18;51.57;;;26.60;;
18505;SDS011;9382;53.242;10.438;2023-04-10T00:43:45;45.90;;;26.10;;
18505;SDS011;9382;53.242;10.438;2023-04-10T00:46:12;48.50;;;26.87;;
18505;SDS011;9382;53.242;10.438;2023-04-10T00:48:40;49.63;;;26.70;;
18505;SDS011;9382;53.242;10.438;2023-04-10T00:51:07;48.40;;;26.07;;
18505;SDS011;9382;53.242;10.438;2023-04-10T00:53:34;48.40;;;26.67;;
18505;SDS011;9382;53.242;10.438;2023-04-10T00:56:01;48.67;;;26.37;;
18505;SDS011;9382;53.242;10.438;2023-04-10T00:58:28;52.77;;;27.93;;
18505;SDS011;9382;53.242;10.438;2023-04-10T01:00:54;51.70;;;27.07;;
18505;SDS011;9382;53.242;10.438;2023-04-10T01:03:21;47.60;;;26.33;;
18505;SDS011;9382;53.242;10.438;2023-04-10T01:05:53;46.53;;;25.40;;
18505;SDS011;9382;53.242;10.438;2023-04-10T01:08:26;46.80;;;25.47;;
18505;SDS011;9382;53.242;10.438;2023-04-10T01:11:04;47.63;;;25.87;;
18505;SDS011;9382;53.242;10.438;2023-04-10T01:13:37;47.33;;;25.57;;
18505;SDS011;9382;53.242;10.438;2023-04-10T01:16:10;44.73;;;25.30;;
18505;SDS011;9382;53.242;10.438;2023-04-10T01:18:45;47.57;;;25.27;;
18505;SDS011;9382;53.242;10.438;2023-04-10T01:21:17;50.27;;;26.27;;
18505;SDS011;9382;53.242;10.438;2023-04-10T01:26:40;48.23;;;26.20;;
18505;SDS011;9382;53.242;10.438;2023-04-10T01:29:25;48.00;;;25.67;;
18505;SDS011;9382;53.242;10.438;2023-04-10T01:31:56;48.77;;;26.23;;
18505;SDS011;9382;53.242;10.438;2023-04-10T01:34:26;50.27;;;25.80;;
18505;SDS011;9382;53.242;10.438;2023-04-10T01:37:01;50.67;;;26.53;;
18505;SDS011;9382;53.242;10.438;2023-04-10T01:39:30;48.97;;;25.57;;
18505;SDS011;9382;53.242;10.438;2023-04-10T01:42:02;51.57;;;25.93;;
18505;SDS011;9382;53.242;10.438;2023-04-10T01:44:32;49.70;;;26.90;;
18505;SDS011;9382;53.242;10.438;2023-04-10T01:47:01;51.33;;;25.67;;
18505;SDS011;9382;53.242;10.438;2023-04-10T01:49:32;49.37;;;26.00;;
18505;SDS011;9382;53.242;10.438;2023-04-10T01:51:59;49.07;;;26.20;;
18505;SDS011;9382;53.242;10.438;2023-04-10T01:54:27;50.07;;;26.93;;
18505;SDS011;9382;53.242;10.438;2023-04-10T01:56:56;49.17;;;26.13;;
18505;SDS011;9382;53.242;10.438;2023-04-10T01:59:24;48.73;;;26.33;;
18505;SDS011;9382;53.242;10.438;2023-04-10T02:01:55;52.90;;;27.00;;
18505;SDS011;9382;53.242;10.438;2023-04-10T02:04:22;50.17;;;27.03;;
18505;SDS011;9382;53.242;10.438;2023-04-10T02:06:52;50.93;;;26.97;;
18505;SDS011;9382;53.242;10.438;2023-04-10T02:09:29;49.30;;;26.37;;
18505;SDS011;9382;53.242;10.438;2023-04-10T02:12:03;50.70;;;26.63;;
18505;SDS011;9382;53.242;10.438;2023-04-10T02:14:33;51.23;;;26.87;;
18505;SDS011;9382;53.242;10.438;2023-04-10T02:17:04;51.27;;;27.70;;
18505;SDS011;9382;53.242;10.438;2023-04-10T02:19:33;52.47;;;27.17;;
18505;SDS011;9382;53.242;10.438;2023-04-10T02:22:02;49.50;;;26.33;;
18505;SDS011;9382;53.242;10.438;2023-04-10T02:24:30;50.13;;;26.53;;
18505;SDS011;9382;53.242;10.438;2023-04-10T02:26:58;51.93;;;27.00;;
18505;SDS011;9382;53.242;10.438;2023-04-10T02:29:25;48.80;;;26.47;;
18505;SDS011;9382;53.242;10.438;2023-04-10T02:31:52;49.73;;;25.83;;
18505;SDS011;9382;53.242;10.438;2023-04-10T02:34:20;51.77;;;27.20;;
18505;SDS011;9382;53.242;10.438;2023-04-10T02:36:47;51.97;;;27.27;;
18505;SDS011;9382;53.242;10.438;2023-04-10T02:39:13;53.23;;;27.70;;
18505;SDS011;9382;53.242;10.438;2023-04-10T02:41:40;49.27;;;26.13;;
18505;SDS011;9382;53.242;10.438;2023-04-10T02:44:07;50.53;;;26.90;;
18505;SDS011;9382;53.242;10.438;2023-04-10T02:46:33;53.23;;;27.87;;
18505;SDS011;9382;53.242;10.438;2023-04-10T02:49:00;53.40;;;28.30;;
18505;SDS011;9382;53.242;10.438;2023-04-10T02:51:28;49.40;;;26.80;;
18505;SDS011;9382;53.242;10.438;2023-04-10T02:53:56;53.63;;;27.70;;
18505;SDS011;9382;53.242;10.438;2023-04-10T02:56:22;50.93;;;28.03;;
18505;SDS011;9382;53.242;10.438;2023-04-10T02:58:49;51.73;;;28.10;;
18505;SDS011;9382;53.242;10.438;2023-04-10T03:01:16;54.00;;;27.40;;
18505;SDS011;9382;53.242;10.438;2023-04-10T03:03:43;50.57;;;26.93;;
18505;SDS011;9382;53.242;10.438;2023-04-10T03:06:09;51.87;;;27.10;;
18505;SDS011;9382;53.242;10.438;2023-04-10T03:08:38;50.47;;;27.93;;
18505;SDS011;9382;53.242;10.438;2023-04-10T03:11:05;47.67;;;25.67;;
18505;SDS011;9382;53.242;10.438;2023-04-10T03:13:33;55.47;;;27.87;;
18505;SDS011;9382;53.242;10.438;2023-04-10T03:16:00;53.37;;;27.80;;
18505;SDS011;9382;53.242;10.438;2023-04-10T03:18:26;50.63;;;27.27;;
18505;SDS011;9382;53.242;10.438;2023-04-10T03:20:53;50.23;;;27.77;;
18505;SDS011;9382;53.242;10.438;2023-04-10T03:23:20;51.90;;;27.63;;
18505;SDS011;9382;53.242;10.438;2023-04-10T03:25:49;52.57;;;27.10;;
18505;SDS011;9382;53.242;10.438;2023-04-10T03:28:17;53.70;;;28.60;;
18505;SDS011;9382;53.242;10.438;2023-04-10T03:30:44;51.57;;;26.77;;
18505;SDS011;9382;53.242;10.438;2023-04-10T03:33:11;52.77;;;27.10;;
18505;SDS011;9382;53.242;10.438;2023-04-10T03:35:37;50.10;;;25.93;;
18505;SDS011;9382;53.242;10.438;2023-04-10T03:38:04;51.90;;;26.87;;
18505;SDS011;9382;53.242;10.438;2023-04-10T03:40:31;54.83;;;28.40;;
18505;SDS011;9382;53.242;10.438;2023-04-10T03:42:59;48.80;;;26.70;;
18505;SDS011;9382;53.242;10.438;2023-04-10T03:45:26;49.67;;;26.37;;
18505;SDS011;9382;53.242;10.438;2023-04-10T03:47:53;51.57;;;27.33;;
18505;SDS011;9382;53.242;10.438;2023-04-10T03:50:20;52.80;;;26.83;;
18505;SDS011;9382;53.242;10.438;2023-04-10T03:52:47;50.17;;;26.23;;
18505;SDS011;9382;53.242;10.438;2023-04-10T03:55:14;52.27;;;26.77;;
18505;SDS011;9382;53.242;10.438;2023-04-10T03:57:43;53.03;;;27.60;;
18505;SDS011;9382;53.242;10.438;2023-04-10T04:00:11;52.73;;;27.53;;
18505;SDS011;9382;53.242;10.438;2023-04-10T04:02:38;49.47;;;26.97;;
18505;SDS011;9382;53.242;10.438;2023-04-10T04:05:05;53.87;;;27.43;;
18505;SDS011;9382;53.242;10.438;2023-04-10T04:07:33;57.53;;;28.13;;
18505;SDS011;9382;53.242;10.438;2023-04-10T04:10:00;49.50;;;26.20;;
18505;SDS011;9382;53.242;10.438;2023-04-10T04:12:26;51.03;;;27.07;;
18505;SDS011;9382;53.242;10.438;2023-04-10T04:14:53;55.90;;;26.60;;
18505;SDS011;9382;53.242;10.438;2023-04-10T04:17:21;60.33;;;29.33;;
18505;SDS011;9382;53.242;10.438;2023-04-10T04:19:48;53.20;;;28.20;;
18505;SDS011;9382;53.242;10.438;2023-04-10T04:22:15;52.30;;;27.33;;
18505;SDS011;9382;53.242;10.438;2023-04-10T04:24:42;54.07;;;27.50;;
18505;SDS011;9382;53.242;10.438;2023-04-10T04:27:08;53.73;;;27.97;;
18505;SDS011;9382;53.242;10.438;2023-04-10T04:29:35;56.83;;;29.37;;
18505;SDS011;9382;53.242;10.438;2023-04-10T04:32:02;55.97;;;30.03;;
18505;SDS011;9382;53.242;10.438;2023-04-10T04:34:30;53.87;;;28.73;;
18505;SDS011;9382;53.242;10.438;2023-04-10T04:36:57;54.90;;;28.30;;
18505;SDS011;9382;53.242;10.438;2023-04-10T04:39:24;57.47;;;28.23;;
18505;SDS011;9382;53.242;10.438;2023-04-10T04:41:51;48.77;;;26.63;;
18505;SDS011;9382;53.242;10.438;2023-04-10T04:44:17;53.60;;;27.60;;
18505;SDS011;9382;53.242;10.438;2023-04-10T04:46:50;54.70;;;27.30;;
18505;SDS011;9382;53.242;10.438;2023-04-10T04:49:19;54.90;;;28.20;;
18505;SDS011;9382;53.242;10.438;2023-04-10T04:51:47;52.20;;;27.30;;
18505;SDS011;9382;53.242;10.438;2023-04-10T04:54:14;51.07;;;27.30;;
18505;SDS011;9382;53.242;10.438;2023-04-10T04:56:41;53.50;;;27.90;;
18505;SDS011;9382;53.242;10.438;2023-04-10T04:59:08;54.13;;;27.90;;
18505;SDS011;9382;53.242;10.438;2023-04-10T05:01:34;52.97;;;27.40;;
18505;SDS011;9382;53.242;10.438;2023-04-10T05:04:01;56.00;;;27.77;;
18505;SDS011;9382;53.242;10.438;2023-04-10T05:06:28;52.63;;;27.90;;
18505;SDS011;9382;53.242;10.438;2023-04-10T05:08:57;56.47;;;28.80;;
18505;SDS011;9382;53.242;10.438;2023-04-10T05:11:23;53.60;;;27.70;;
18505;SDS011;9382;53.242;10.438;2023-04-10T05:13:50;49.17;;;27.03;;
18505;SDS011;9382;53.242;10.438;2023-04-10T05:16:17;52.37;;;27.37;;
18505;SDS011;9382;53.242;10.438;2023-04-10T05:18:44;51.20;;;27.17;;
18505;SDS011;9382;53.242;10.438;2023-04-10T05:21:11;55.60;;;28.30;;
18505;SDS011;9382;53.242;10.438;2023-04-10T05:23:38;52.90;;;28.27;;
18505;SDS011;9382;53.242;10.438;2023-04-10T05:26:06;51.43;;;26.93;;
18505;SDS011;9382;53.242;10.438;2023-04-10T05:28:33;53.13;;;27.77;;
18505;SDS011;9382;53.242;10.438;2023-04-10T05:31:00;52.73;;;27.57;;
18505;SDS011;9382;53.242;10.438;2023-04-10T05:33:26;53.57;;;28.03;;
18505;SDS011;9382;53.242;10.438;2023-04-10T05:35:53;53.67;;;27.30;;
18505;SDS011;9382;53.242;10.438;2023-04-10T05:38:20;51.17;;;27.30;;
18505;SDS011;9382;53.242;10.438;2023-04-10T05:40:48;52.70;;;27.67;;
18505;SDS011;9382;53.242;10.438;2023-04-10T05:43:16;50.53;;;27.07;;
18505;SDS011;9382;53.242;10.438;2023-04-10T05:45:43;50.83;;;26.73;;
18505;SDS011;9382;53.242;10.438;2023-04-10T05:48:10;51.77;;;26.77;;
18505;SDS011;9382;53.242;10.438;2023-04-10T05:50:37;49.63;;;26.83;;
18505;SDS011;9382;53.242;10.438;2023-04-10T05:53:03;49.07;;;26.33;;
18505;SDS011;9382;53.242;10.438;2023-04-10T05:55:30;48.33;;;26.43;;
18505;SDS011;9382;53.242;10.438;2023-04-10T05:57:57;50.90;;;26.83;;
18505;SDS011;9382;53.242;10.438;2023-04-10T06:00:25;47.93;;;25.33;;
18505;SDS011;9382;53.242;10.438;2023-04-10T06:02:52;47.97;;;24.97;;
18505;SDS011;9382;53.242;10.438;2023-04-10T06:05:18;48.37;;;25.90;;
18505;SDS011;9382;53.242;10.438;2023-04-10T06:07:45;43.57;;;24.80;;
18505;SDS011;9382;53.242;10.438;2023-04-10T06:10:12;48.57;;;25.67;;
18505;SDS011;9382;53.242;10.438;2023-04-10T06:12:39;46.13;;;25.43;;
18505;SDS011;9382;53.242;10.438;2023-04-10T06:15:06;46.73;;;25.23;;
18505;SDS011;9382;53.242;10.438;2023-04-10T06:17:34;43.67;;;24.60;;
18505;SDS011;9382;53.242;10.438;2023-04-10T06:20:08;46.37;;;24.70;;
18505;SDS011;9382;53.242;10.438;2023-04-10T06:22:35;38.63;;;23.37;;
18505;SDS011;9382;53.242;10.438;2023-04-10T06:25:02;47.20;;;25.03;;
18505;SDS011;9382;53.242;10.438;2023-04-10T06:27:29;43.07;;;23.87;;
18505;SDS011;9382;53.242;10.438;2023-04-10T06:29:56;42.90;;;23.27;;
18505;SDS011;9382;53.242;10.438;2023-04-10T06:32:22;43.30;;;23.43;;
18505;SDS011;9382;53.242;10.438;2023-04-10T06:34:51;47.37;;;24.37;;
18505;SDS011;9382;53.242;10.438;2023-04-10T06:37:17;43.43;;;23.37;;
18505;SDS011;9382;53.242;10.438;2023-04-10T06:39:44;41.33;;;22.90;;
18505;SDS011;9382;53.242;10.438;2023-04-10T06:42:11;41.13;;;22.67;;
18505;SDS011;9382;53.242;10.438;2023-04-10T06:44:38;42.13;;;22.53;;
18505;SDS011;9382;53.242;10.438;2023-04-10T06:47:04;39.70;;;22.20;;
18505;SDS011;9382;53.242;10.438;2023-04-10T06:49:33;42.83;;;22.23;;
18505;SDS011;9382;53.242;10.438;2023-04-10T06:52:01;41.00;;;22.27;;
18505;SDS011;9382;53.242;10.438;2023-04-10T06:54:27;39.43;;;21.47;;
18505;SDS011;9382;53.242;10.438;2023-04-10T06:56:55;39.67;;;21.87;;
18505;SDS011;9382;53.242;10.438;2023-04-10T06:59:22;36.63;;;20.50;;
18505;SDS011;9382;53.242;10.438;2023-04-10T07:01:49;38.63;;;20.80;;
18505;SDS011;9382;53.242;10.438;2023-04-10T07:04:16;39.87;;;21.90;;
18505;SDS011;9382;53.242;10.438;2023-04-10T07:06:43;39.47;;;19.43;;
18505;SDS011;9382;53.242;10.438;2023-04-10T07:09:11;36.60;;;20.30;;
18505;SDS011;9382;53.242;10.438;2023-04-10T07:11:37;38.30;;;20.17;;
18505;SDS011;9382;53.242;10.438;2023-04-10T07:14:04;39.10;;;20.87;;
18505;SDS011;9382;53.242;10.438;2023-04-10T07:16:31;35.47;;;19.60;;
18505;SDS011;9382;53.242;10.438;2023-04-10T07:18:58;36.90;;;19.43;;
18505;SDS011;9382;53.242;10.438;2023-04-10T07:21:25;33.70;;;19.10;;
18505;SDS011;9382;53.242;10.438;2023-04-10T07:23:52;33.17;;;19.27;;
18505;SDS011;9382;53.242;10.438;2023-04-10T07:26:20;32.40;;;19.17;;
18505;SDS011;9382;53.242;10.438;2023-04-10T07:28:46;33.83;;;18.90;;
18505;SDS011;9382;53.242;10.438;2023-04-10T07:31:13;34.60;;;18.93;;
18505;SDS011;9382;53.242;10.438;2023-04-10T07:33:41;30.83;;;18.17;;
18505;SDS011;9382;53.242;10.438;2023-04-10T07:36:08;32.17;;;18.60;;
18505;SDS011;9382;53.242;10.438;2023-04-10T07:38:35;30.23;;;17.97;;
18505;SDS011;9382;53.242;10.438;2023-04-10T07:41:03;33.93;;;18.60;;
18505;SDS011;9382;53.242;10.438;2023-04-10T07:43:31;32.30;;;18.20;;
18505;SDS011;9382;53.242;10.438;2023-04-10T07:45:58;30.87;;;17.57;;
18505;SDS011;9382;53.242;10.438;2023-04-10T07:48:25;28.77;;;16.27;;
18505;SDS011;9382;53.242;10.438;2023-04-10T07:50:52;29.60;;;16.20;;
18505;SDS011;9382;53.242;10.438;2023-04-10T07:53:18;27.43;;;16.60;;
18505;SDS011;9382;53.242;10.438;2023-04-10T07:55:45;27.80;;;16.00;;
18505;SDS011;9382;53.242;10.438;2023-04-10T07:58:13;27.77;;;16.67;;
18505;SDS011;9382;53.242;10.438;2023-04-10T08:00:41;27.63;;;16.03;;
18505;SDS011;9382;53.242;10.438;2023-04-10T08:03:08;28.03;;;16.00;;
18505;SDS011;9382;53.242;10.438;2023-04-10T08:05:35;27.07;;;15.97;;
18505;SDS011;9382;53.242;10.438;2023-04-10T08:08:02;25.40;;;15.33;;
18505;SDS011;9382;53.242;10.438;2023-04-10T08:10:29;25.63;;;15.33;;
18505;SDS011;9382;53.242;10.438;2023-04-10T08:12:56;26.17;;;15.73;;
18505;SDS011;9382;53.242;10.438;2023-04-10T08:15:22;24.00;;;13.87;;
18505;SDS011;9382;53.242;10.438;2023-04-10T08:17:51;23.63;;;13.63;;
18505;SDS011;9382;53.242;10.438;2023-04-10T08:20:17;24.10;;;14.20;;
18505;SDS011;9382;53.242;10.438;2023-04-10T08:22:44;23.27;;;13.53;;
18505;SDS011;9382;53.242;10.438;2023-04-10T08:25:11;18.93;;;12.43;;
18505;SDS011;9382;53.242;10.438;2023-04-10T08:27:38;22.97;;;13.77;;
18505;SDS011;9382;53.242;10.438;2023-04-10T08:30:05;23.77;;;14.23;;
18505;SDS011;9382;53.242;10.438;2023-04-10T08:32:32;24.13;;;14.30;;
18505;SDS011;9382;53.242;10.438;2023-04-10T08:35:00;21.13;;;13.50;;
18505;SDS011;9382;53.242;10.438;2023-04-10T08:37:27;23.57;;;13.77;;
18505;SDS011;9382;53.242;10.438;2023-04-10T08:39:54;22.20;;;13.90;;
18505;SDS011;9382;53.242;10.438;2023-04-10T08:42:21;21.23;;;12.57;;
18505;SDS011;9382;53.242;10.438;2023-04-10T08:44:47;21.47;;;13.20;;
18505;SDS011;9382;53.242;10.438;2023-04-10T08:47:16;22.60;;;13.53;;
18505;SDS011;9382;53.242;10.438;2023-04-10T08:49:46;21.27;;;13.57;;
18505;SDS011;9382;53.242;10.438;2023-04-10T08:52:21;18.57;;;12.40;;
18505;SDS011;9382;53.242;10.438;2023-04-10T08:54:50;20.20;;;12.90;;
18505;SDS011;9382;53.242;10.438;2023-04-10T08:57:20;17.40;;;11.50;;
18505;SDS011;9382;53.242;10.438;2023-04-10T08:59:47;18.97;;;12.17;;
18505;SDS011;9382;53.242;10.438;2023-04-10T09:02:15;19.10;;;12.33;;
18505;SDS011;9382;53.242;10.438;2023-04-10T09:04:42;20.63;;;12.20;;
18505;SDS011;9382;53.242;10.438;2023-04-10T09:07:13;17.77;;;12.00;;
18505;SDS011;9382;53.242;10.438;2023-04-10T09:09:42;20.20;;;12.07;;
18505;SDS011;9382;53.242;10.438;2023-04-10T09:12:09;16.70;;;10.97;;
18505;SDS011;9382;53.242;10.438;2023-04-10T09:14:39;18.77;;;11.60;;
18505;SDS011;9382;53.242;10.438;2023-04-10T09:17:09;21.13;;;12.83;;
18505;SDS011;9382;53.242;10.438;2023-04-10T09:19:41;16.90;;;11.40;;
18505;SDS011;9382;53.242;10.438;2023-04-10T09:22:09;17.40;;;11.70;;
18505;SDS011;9382;53.242;10.438;2023-04-10T09:24:36;16.30;;;11.70;;
18505;SDS011;9382;53.242;10.438;2023-04-10T09:27:06;16.27;;;11.10;;
18505;SDS011;9382;53.242;10.438;2023-04-10T09:29:43;17.73;;;11.30;;
18505;SDS011;9382;53.242;10.438;2023-04-10T09:32:13;17.30;;;11.63;;
18505;SDS011;9382;53.242;10.438;2023-04-10T09:35:00;19.43;;;11.73;;
18505;SDS011;9382;53.242;10.438;2023-04-10T09:37:30;17.87;;;11.17;;
18505;SDS011;9382;53.242;10.438;2023-04-10T09:39:57;16.67;;;11.07;;
18505;SDS011;9382;53.242;10.438;2023-04-10T09:42:29;14.20;;;10.20;;
18505;SDS011;9382;53.242;10.438;2023-04-10T09:44:57;17.23;;;10.20;;
18505;SDS011;9382;53.242;10.438;2023-04-10T09:47:25;15.53;;;10.00;;
18505;SDS011;9382;53.242;10.438;2023-04-10T09:49:52;16.33;;;10.57;;
18505;SDS011;9382;53.242;10.438;2023-04-10T09:52:24;16.90;;;10.43;;
18505;SDS011;9382;53.242;10.438;2023-04-10T09:54:51;15.20;;;10.40;;
18505;SDS011;9382;53.242;10.438;2023-04-10T09:57:20;15.47;;;10.00;;
18505;SDS011;9382;53.242;10.438;2023-04-10T09:59:49;16.13;;;9.67;;
18505;SDS011;9382;53.242;10.438;2023-04-10T10:02:17;14.33;;;9.50;;
18505;SDS011;9382;53.242;10.438;2023-04-10T10:04:45;13.60;;;8.63;;
18505;SDS011;9382;53.242;10.438;2023-04-10T10:07:13;13.73;;;9.13;;
18505;SDS011;9382;53.242;10.438;2023-04-10T10:09:41;13.10;;;8.90;;
18505;SDS011;9382;53.242;10.438;2023-04-10T10:12:09;11.37;;;8.30;;
18505;SDS011;9382;53.242;10.438;2023-04-10T10:14:37;12.47;;;8.93;;
18505;SDS011;9382;53.242;10.438;2023-04-10T10:17:10;13.33;;;9.10;;
18505;SDS011;9382;53.242;10.438;2023-04-10T10:19:41;11.70;;;8.40;;
18505;SDS011;9382;53.242;10.438;2023-04-10T10:22:14;11.50;;;8.27;;
18505;SDS011;9382;53.242;10.438;2023-04-10T10:24:43;15.20;;;8.87;;
18505;SDS011;9382;53.242;10.438;2023-04-10T10:27:12;12.43;;;8.33;;
18505;SDS011;9382;53.242;10.438;2023-04-10T10:29:41;10.97;;;7.17;;
18505;SDS011;9382;53.242;10.438;2023-04-10T10:32:12;12.07;;;8.23;;
18505;SDS011;9382;53.242;10.438;2023-04-10T10:34:41;10.33;;;7.90;;
18505;SDS011;9382;53.242;10.438;2023-04-10T10:37:09;10.87;;;7.40;;
18505;SDS011;9382;53.242;10.438;2023-04-10T10:39:41;9.13;;;7.10;;
18505;SDS011;9382;53.242;10.438;2023-04-10T10:42:15;9.53;;;6.90;;
18505;SDS011;9382;53.242;10.438;2023-04-10T10:44:48;10.60;;;7.10;;
18505;SDS011;9382;53.242;10.438;2023-04-10T10:47:23;8.57;;;6.80;;
18505;SDS011;9382;53.242;10.438;2023-04-10T10:49:53;12.33;;;7.60;;
18505;SDS011;9382;53.242;10.438;2023-04-10T10:55:31;10.10;;;6.70;;
18505;SDS011;9382;53.242;10.438;2023-04-10T10:58:01;10.10;;;6.60;;
18505;SDS011;9382;53.242;10.438;2023-04-10T11:03:33;10.57;;;6.73;;
18505;SDS011;9382;53.242;10.438;2023-04-10T11:06:01;10.43;;;7.00;;
18505;SDS011;9382;53.242;10.438;2023-04-10T11:08:35;8.43;;;6.20;;
18505;SDS011;9382;53.242;10.438;2023-04-10T11:11:06;7.33;;;5.80;;
18505;SDS011;9382;53.242;10.438;2023-04-10T11:13:35;7.00;;;5.63;;
18505;SDS011;9382;53.242;10.438;2023-04-10T11:16:03;7.13;;;5.60;;
18505;SDS011;9382;53.242;10.438;2023-04-10T11:21:28;6.90;;;5.60;;
18505;SDS011;9382;53.242;10.438;2023-04-10T11:24:03;7.77;;;5.50;;
18505;SDS011;9382;53.242;10.438;2023-04-10T11:26:38;7.30;;;5.53;;
18505;SDS011;9382;53.242;10.438;2023-04-10T11:31:59;5.60;;;5.00;;
18505;SDS011;9382;53.242;10.438;2023-04-10T11:34:28;6.50;;;4.93;;
18505;SDS011;9382;53.242;10.438;2023-04-10T11:36:57;6.10;;;4.50;;
18505;SDS011;9382;53.242;10.438;2023-04-10T11:39:26;6.10;;;4.63;;
18505;SDS011;9382;53.242;10.438;2023-04-10T11:41:54;7.20;;;4.70;;
18505;SDS011;9382;53.242;10.438;2023-04-10T11:44:26;6.37;;;5.20;;
18505;SDS011;9382;53.242;10.438;2023-04-10T11:46:54;6.27;;;5.03;;
18505;SDS011;9382;53.242;10.438;2023-04-10T11:49:22;5.97;;;5.23;;
18505;SDS011;9382;53.242;10.438;2023-04-10T11:51:51;6.93;;;5.03;;
18505;SDS011;9382;53.242;10.438;2023-04-10T11:54:18;6.30;;;4.70;;
18505;SDS011;9382;53.242;10.438;2023-04-10T11:56:54;6.10;;;5.20;;
18505;SDS011;9382;53.242;10.438;2023-04-10T11:59:22;6.17;;;5.00;;
18505;SDS011;9382;53.242;10.438;2023-04-10T12:01:50;6.10;;;5.23;;
18505;SDS011;9382;53.242;10.438;2023-04-10T12:04:20;6.97;;;5.00;;
18505;SDS011;9382;53.242;10.438;2023-04-10T12:06:48;6.37;;;4.90;;
18505;SDS011;9382;53.242;10.438;2023-04-10T12:09:19;8.17;;;5.27;;
18505;SDS011;9382;53.242;10.438;2023-04-10T12:11:49;6.40;;;5.13;;
18505;SDS011;9382;53.242;10.438;2023-04-10T12:14:18;6.53;;;4.90;;
18505;SDS011;9382;53.242;10.438;2023-04-10T12:16:45;6.27;;;4.60;;
18505;SDS011;9382;53.242;10.438;2023-04-10T12:19:13;5.23;;;4.63;;
18505;SDS011;9382;53.242;10.438;2023-04-10T12:21:42;6.40;;;5.07;;
18505;SDS011;9382;53.242;10.438;2023-04-10T12:24:10;5.00;;;4.50;;
18505;SDS011;9382;53.242;10.438;2023-04-10T12:26:45;6.13;;;4.80;;
18505;SDS011;9382;53.242;10.438;2023-04-10T12:29:13;5.60;;;4.93;;
18505;SDS011;9382;53.242;10.438;2023-04-10T12:31:40;9.03;;;5.00;;
18505;SDS011;9382;53.242;10.438;2023-04-10T12:34:07;7.17;;;5.20;;
18505;SDS011;9382;53.242;10.438;2023-04-10T12:36:34;8.50;;;6.03;;
18505;SDS011;9382;53.242;10.438;2023-04-10T12:39:02;6.83;;;5.20;;
18505;SDS011;9382;53.242;10.438;2023-04-10T12:41:30;8.43;;;5.43;;
18505;SDS011;9382;53.242;10.438;2023-04-10T12:44:09;8.73;;;6.27;;
18505;SDS011;9382;53.242;10.438;2023-04-10T12:46:37;8.80;;;5.90;;
18505;SDS011;9382;53.242;10.438;2023-04-10T12:49:08;6.97;;;5.37;;
18505;SDS011;9382;53.242;10.438;2023-04-10T12:51:43;7.23;;;5.80;;
18505;SDS011;9382;53.242;10.438;2023-04-10T12:54:11;8.07;;;5.70;;
18505;SDS011;9382;53.242;10.438;2023-04-10T12:56:55;8.50;;;6.70;;
18505;SDS011;9382;53.242;10.438;2023-04-10T12:59:24;8.63;;;6.37;;
18505;SDS011;9382;53.242;10.438;2023-04-10T13:01:51;8.70;;;5.80;;
18505;SDS011;9382;53.242;10.438;2023-04-10T13:04:18;9.63;;;6.37;;
18505;SDS011;9382;53.242;10.438;2023-04-10T13:06:46;6.93;;;5.50;;
18505;SDS011;9382;53.242;10.438;2023-04-10T13:09:16;7.30;;;5.90;;
18505;SDS011;9382;53.242;10.438;2023-04-10T13:11:43;8.53;;;6.03;;
18505;SDS011;9382;53.242;10.438;2023-04-10T13:14:10;8.93;;;6.63;;
18505;SDS011;9382;53.242;10.438;2023-04-10T13:16:38;9.37;;;6.70;;
18505;SDS011;9382;53.242;10.438;2023-04-10T13:19:05;8.73;;;6.63;;
18505;SDS011;9382;53.242;10.438;2023-04-10T13:21:31;8.07;;;6.03;;
18505;SDS011;9382;53.242;10.438;2023-04-10T13:23:58;8.57;;;5.87;;
18505;SDS011;9382;53.242;10.438;2023-04-10T13:26:25;8.80;;;6.37;;
18505;SDS011;9382;53.242;10.438;2023-04-10T13:28:51;8.47;;;6.17;;
18505;SDS011;9382;53.242;10.438;2023-04-10T13:31:18;9.33;;;6.97;;
18505;SDS011;9382;53.242;10.438;2023-04-10T13:33:47;8.67;;;6.70;;
18505;SDS011;9382;53.242;10.438;2023-04-10T13:36:13;9.53;;;7.17;;
18505;SDS011;9382;53.242;10.438;2023-04-10T13:38:40;11.43;;;7.17;;
18505;SDS011;9382;53.242;10.438;2023-04-10T13:41:07;9.47;;;7.03;;
18505;SDS011;9382;53.242;10.438;2023-04-10T13:43:34;8.60;;;6.90;;
18505;SDS011;9382;53.242;10.438;2023-04-10T13:46:01;10.00;;;7.03;;
18505;SDS011;9382;53.242;10.438;2023-04-10T13:48:28;9.43;;;7.03;;
18505;SDS011;9382;53.242;10.438;2023-04-10T13:50:56;10.73;;;7.53;;
18505;SDS011;9382;53.242;10.438;2023-04-10T13:53:23;9.97;;;7.53;;
18505;SDS011;9382;53.242;10.438;2023-04-10T13:55:49;10.63;;;7.17;;
18505;SDS011;9382;53.242;10.438;2023-04-10T13:58:16;11.43;;;7.80;;
18505;SDS011;9382;53.242;10.438;2023-04-10T14:00:43;11.67;;;8.03;;
18505;SDS011;9382;53.242;10.438;2023-04-10T14:03:10;11.80;;;8.43;;
18505;SDS011;9382;53.242;10.438;2023-04-10T14:05:36;10.90;;;8.00;;
18505;SDS011;9382;53.242;10.438;2023-04-10T14:08:05;12.43;;;8.70;;
18505;SDS011;9382;53.242;10.438;2023-04-10T14:10:35;11.43;;;8.27;;
18505;SDS011;9382;53.242;10.438;2023-04-10T14:13:03;12.40;;;9.03;;
18505;SDS011;9382;53.242;10.438;2023-04-10T14:15:30;12.77;;;8.17;;
18505;SDS011;9382;53.242;10.438;2023-04-10T14:17:57;13.40;;;8.30;;
18505;SDS011;9382;53.242;10.438;2023-04-10T14:20:23;11.83;;;7.97;;
18505;SDS011;9382;53.242;10.438;2023-04-10T14:22:50;10.87;;;7.53;;
18505;SDS011;9382;53.242;10.438;2023-04-10T14:25:18;10.10;;;7.00;;
18505;SDS011;9382;53.242;10.438;2023-04-10T14:27:45;12.30;;;7.70;;
18505;SDS011;9382;53.242;10.438;2023-04-10T14:30:12;10.73;;;7.57;;
18505;SDS011;9382;53.242;10.438;2023-04-10T14:32:38;9.73;;;6.97;;
18505;SDS011;9382;53.242;10.438;2023-04-10T14:35:05;9.67;;;5.97;;
18505;SDS011;9382;53.242;10.438;2023-04-10T14:37:33;6.50;;;5.27;;
18505;SDS011;9382;53.242;10.438;2023-04-10T14:39:59;7.73;;;5.40;;
18505;SDS011;9382;53.242;10.438;2023-04-10T14:42:29;7.27;;;5.10;;
18505;SDS011;9382;53.242;10.438;2023-04-10T14:44:56;5.53;;;4.83;;
18505;SDS011;9382;53.242;10.438;2023-04-10T14:47:23;5.80;;;4.53;;
18505;SDS011;9382;53.242;10.438;2023-04-10T14:49:50;5.97;;;4.83;;